map of KSQ home
KSQ - Airport
Location
City:  Karshi, Qashqadaryo, Uzbekistan
Name:Karshi Airport
ICAO:UTSK
IATA:KSQ

Details
Type:Airport (Aerodrome, Airfield)
Use:Public/Civil, International (customs port of entry)
Latitude:3848'10"N (38.802778)
Longitude:6546'22"E (65.772778)
Elevation:1230 ft (375 m)
Variation:4.81E (WMM2015 magnetic declination)
0.06 annual change
Runways:1
Longest:8858 × 148 ft (2700 × 45 m)

Time
Time Zone:UTC+5
Local Time:

Weather
METAR:UTSK 240730Z 34008KT 290V360 CAVOK 31/02 Q1016 R16/CLRD70

Related Locations
Nearby:
Farthest:IPC: 11583 mi / 18640 km
Easter Island (Isla de Pascua, Rapa Nui) [Mataveri Intl], VS, CL

Find:

   beyond  
but within

Other Information
Maps:
NOTAMs:
Links:
Sources:

  
flag of Uzbekistan   

Sectional Chart

Flight Planning
at skyvector.com

Satellite Image

Google Maps Satellite view

 

Copyright © 2004-2018 Karl L. Swartz. All rights reserved.
The Great Circle Mapper name and logo are trademarks of the Great Circle Mapper.
All other trademarks mentioned herein belong to their respective owners.
Please see credits for attibutions and further copyright information.

  Follow gcmap on Facebook Follow gcmap on Twitter Follow gcmap on Google+ GCmap on LinkedIn

hCard Microformat

Geo Microformat